Time;durP1;ratioP1;P1;durP2;ratioP2;P2;SDS_P1;SDS_P2;PMS_P1;PMS_P2;Temp;Humidity;BMP_temperature;BMP_pressure;BME280_temperature;BME280_humidity;BME280_pressure;Samples;Min_cycle;Max_cycle;Signal;HPM_P1;HPM_P2
2023/01/31 00:01:21;;;;;;;41.90;29.48;;;6.60;77.40;;;;;;6246084;23;20068;-84
2023/01/31 00:03:51;;;;;;;38.67;27.40;;;6.60;78.30;;;;;;6245741;23;20094;-83
2023/01/31 00:06:29;;;;;;;39.85;27.98;;;6.60;77.50;;;;;;6245624;22;20133;-84
2023/01/31 00:08:57;;;;;;;39.28;27.80;;;6.50;77.20;;;;;;6245999;23;20083;-83
2023/01/31 00:11:24;;;;;;;41.08;29.08;;;6.50;77.10;;;;;;6246326;22;20419;-83
2023/01/31 00:13:51;;;;;;;43.42;27.45;;;6.50;77.20;;;;;;6249445;22;20024;-83
2023/01/31 00:16:18;;;;;;;37.25;27.33;;;6.50;76.90;;;;;;6248616;23;20099;-83
2023/01/31 00:18:44;;;;;;;36.47;26.35;;;6.50;77.20;;;;;;6218652;23;20008;-84
2023/01/31 00:21:14;;;;;;;38.65;25.83;;;6.40;77.10;;;;;;6218772;23;20083;-82
2023/01/31 00:23:41;;;;;;;37.28;26.77;;;6.40;77.70;;;;;;6247362;23;20008;-82
2023/01/31 00:26:19;;;;;;;37.53;26.52;;;6.40;77.20;;;;;;6248197;22;20076;-82
2023/01/31 00:28:47;;;;;;;35.28;26.10;;;6.40;77.20;;;;;;6247421;22;20012;-83
2023/01/31 00:31:13;;;;;;;37.95;27.17;;;6.30;77.10;;;;;;6247584;22;20069;-83
2023/01/31 00:33:42;;;;;;;37.92;28.02;;;6.30;77.60;;;;;;6247606;22;20433;-83
2023/01/31 00:36:13;;;;;;;35.53;26.58;;;6.40;77.40;;;;;;6248242;23;20011;-83
2023/01/31 00:38:41;;;;;;;37.28;26.02;;;6.40;77.80;;;;;;6247518;22;20000;-83
2023/01/31 00:41:07;;;;;;;35.92;24.65;;;6.40;77.50;;;;;;6247506;23;20062;-84
2023/01/31 00:43:33;;;;;;;33.95;25.70;;;6.30;77.60;;;;;;6247931;23;20012;-85
2023/01/31 00:45:59;;;;;;;34.25;25.90;;;6.40;77.80;;;;;;6247500;22;20004;-83
2023/01/31 00:48:26;;;;;;;35.72;26.05;;;6.40;78.40;;;;;;6249641;23;20004;-84
2023/01/31 00:50:52;;;;;;;37.65;24.85;;;6.40;77.60;;;;;;6247541;22;20434;-83
2023/01/31 00:53:22;;;;;;;40.03;26.30;;;6.40;77.40;;;;;;6247700;22;20007;-83
2023/01/31 00:55:49;;;;;;;38.33;26.27;;;6.40;77.70;;;;;;6247388;22;20007;-84
2023/01/31 00:58:15;;;;;;;35.72;24.98;;;6.50;78.60;;;;;;6247857;23;20000;-83
2023/01/31 01:00:40;;;;;;;34.20;24.75;;;6.50;78.50;;;;;;6248104;22;20035;-83
2023/01/31 01:03:06;;;;;;;35.58;25.10;;;6.50;78.10;;;;;;6254679;22;20353;-82
2023/01/31 01:05:32;;;;;;;35.47;25.02;;;6.50;77.40;;;;;;6227412;23;20000;-83
2023/01/31 01:07:57;;;;;;;38.53;27.02;;;6.40;77.20;;;;;;6249059;23;20008;-83
2023/01/31 01:10:23;;;;;;;41.45;28.25;;;6.40;77.80;;;;;;6252484;22;20032;-83
2023/01/31 01:12:49;;;;;;;41.95;28.13;;;6.40;77.70;;;;;;6256644;23;20011;-84
2023/01/31 01:15:15;;;;;;;46.80;33.22;;;6.40;78.00;;;;;;6259892;22;20000;-84
2023/01/31 01:17:41;;;;;;;48.08;33.75;;;6.40;77.40;;;;;;6255845;22;20020;-83
2023/01/31 01:20:07;;;;;;;48.33;34.28;;;6.30;77.50;;;;;;6254034;23;20023;-83
2023/01/31 01:22:34;;;;;;;47.17;32.97;;;6.30;78.20;;;;;;6252563;22;20019;-82
2023/01/31 01:25:01;;;;;;;47.25;32.55;;;6.30;77.80;;;;;;6252818;22;20000;-82
2023/01/31 01:27:26;;;;;;;47.08;32.00;;;6.30;78.10;;;;;;6252766;22;20007;-83
2023/01/31 01:29:52;;;;;;;46.85;31.75;;;6.30;77.70;;;;;;6248266;22;20012;-83
2023/01/31 01:32:18;;;;;;;43.20;30.08;;;6.20;77.80;;;;;;6249271;22;20431;-82
2023/01/31 01:34:44;;;;;;;37.25;27.00;;;6.20;77.70;;;;;;6250533;22;20060;-82
2023/01/31 01:37:18;;;;;;;57.15;28.08;;;6.10;77.80;;;;;;6250119;22;20048;-82
2023/01/31 01:39:45;;;;;;;38.30;26.33;;;6.10;77.80;;;;;;6247599;23;20000;-84
2023/01/31 01:42:19;;;;;;;38.72;26.40;;;6.10;78.00;;;;;;6247095;23;20070;-82
2023/01/31 01:44:54;;;;;;;36.13;26.13;;;6.10;77.70;;;;;;6247097;22;20438;-80
2023/01/31 01:47:53;;;;;;;34.90;24.92;;;6.10;78.60;;;;;;6220462;23;20012;-82
2023/01/31 01:50:43;;;;;;;32.58;24.13;;;6.10;79.10;;;;;;6247781;22;20457;-82
2023/01/31 01:53:15;;;;;;;32.95;23.33;;;6.10;77.80;;;;;;6247813;23;20004;-83
2023/01/31 01:55:52;;;;;;;31.92;23.17;;;6.10;77.70;;;;;;6252265;23;20000;-82
2023/01/31 01:58:25;;;;;;;33.63;21.67;;;6.00;78.80;;;;;;6250102;22;20007;-83
2023/01/31 02:00:52;;;;;;;25.63;16.88;;;6.00;77.80;;;;;;6247163;22;20024;-83
2023/01/31 02:03:18;;;;;;;29.20;21.33;;;6.00;77.70;;;;;;6247150;22;20012;-84
2023/01/31 02:05:48;;;;;;;30.95;21.63;;;5.90;77.70;;;;;;6247164;22;19996;-81
2023/01/31 02:08:17;;;;;;;28.17;21.20;;;5.90;77.50;;;;;;6246710;22;20369;-82
2023/01/31 02:11:10;;;;;;;28.98;19.42;;;5.90;77.80;;;;;;6247816;22;20000;-82
2023/01/31 02:13:39;;;;;;;29.38;20.27;;;5.90;78.50;;;;;;6235490;23;20060;-83
2023/01/31 02:16:04;;;;;;;31.42;20.77;;;5.90;77.90;;;;;;6248197;22;20358;-82
2023/01/31 02:18:30;;;;;;;26.58;19.70;;;5.90;77.80;;;;;;6247574;22;20004;-83
2023/01/31 02:21:18;;;;;;;28.02;19.33;;;5.80;77.60;;;;;;6223089;23;20058;-83
2023/01/31 02:24:08;;;;;;;25.17;19.05;;;5.80;78.70;;;;;;6246885;23;20058;-82
2023/01/31 02:27:13;;;;;;;25.08;18.27;;;5.80;77.60;;;;;;6247081;22;20083;-81
2023/01/31 02:29:42;;;;;;;24.70;17.70;;;5.80;78.50;;;;;;6250385;22;20031;-83
2023/01/31 02:32:28;;;;;;;25.33;17.75;;;5.70;78.80;;;;;;6248335;23;20006;-83
2023/01/31 02:35:41;;;;;;;25.63;18.02;;;5.60;78.00;;;;;;6221373;22;20500;-83
2023/01/31 02:38:13;;;;;;;24.27;18.00;;;5.50;78.30;;;;;;6248131;22;20000;-82
2023/01/31 02:40:50;;;;;;;27.13;18.05;;;5.50;78.50;;;;;;6247021;23;20074;-82
2023/01/31 02:43:20;;;;;;;25.35;17.55;;;5.40;78.50;;;;;;6247076;22;20366;-84
2023/01/31 02:45:51;;;;;;;21.15;16.27;;;5.30;77.90;;;;;;6247539;23;19997;-83
2023/01/31 02:48:50;;;;;;;24.67;17.58;;;5.30;78.10;;;;;;6253147;23;20038;-83
2023/01/31 02:51:26;;;;;;;21.90;15.98;;;5.30;78.80;;;;;;6267111;23;20000;-82
2023/01/31 02:54:00;;;;;;;25.25;17.23;;;5.30;78.00;;;;;;6269109;22;20050;-81
2023/01/31 02:56:32;;;;;;;25.08;16.55;;;5.30;78.10;;;;;;6269095;22;20000;-82
2023/01/31 02:59:12;;;;;;;22.98;16.13;;;5.30;78.30;;;;;;6270364;22;20046;-82
2023/01/31 03:01:42;;;;;;;23.65;16.65;;;5.40;78.10;;;;;;6262100;23;19996;-81
2023/01/31 03:04:10;;;;;;;27.00;18.25;;;5.40;78.20;;;;;;6261522;23;20038;-82
2023/01/31 03:06:36;;;;;;;22.48;16.60;;;5.40;78.10;;;;;;6259859;22;19997;-82
2023/01/31 03:09:12;;;;;;;23.75;16.30;;;5.50;78.10;;;;;;6259169;23;20007;-81
2023/01/31 03:12:01;;;;;;;22.45;16.33;;;5.60;80.30;;;;;;6266586;22;19996;-81
2023/01/31 03:14:37;;;;;;;26.40;17.27;;;5.60;79.60;;;;;;6267735;23;19996;-83
2023/01/31 03:17:30;;;;;;;23.88;16.15;;;5.60;78.90;;;;;;6258306;22;20007;-82
2023/01/31 03:20:21;;;;;;;23.55;16.13;;;5.70;79.30;;;;;;6253588;22;20000;-83
2023/01/31 03:22:57;;;;;;;26.25;17.27;;;5.60;79.00;;;;;;6259710;23;20058;-81
2023/01/31 03:25:26;;;;;;;25.83;17.40;;;5.60;78.70;;;;;;6252651;22;20000;-83
2023/01/31 03:27:57;;;;;;;24.50;16.60;;;5.70;78.30;;;;;;6256694;23;20004;-84
2023/01/31 03:30:33;;;;;;;25.05;17.48;;;5.70;78.60;;;;;;6249216;23;20031;-83
2023/01/31 03:33:11;;;;;;;25.38;16.73;;;5.60;78.60;;;;;;6248886;23;20014;-84
2023/01/31 03:35:39;;;;;;;23.05;16.35;;;5.50;78.70;;;;;;6248300;23;20434;-83
2023/01/31 03:38:18;;;;;;;25.23;16.83;;;5.40;78.30;;;;;;6251304;23;20285;-83
2023/01/31 03:41:00;;;;;;;23.60;16.58;;;5.40;78.50;;;;;;6268436;22;19988;-83
2023/01/31 03:44:02;;;;;;;22.67;16.50;;;5.50;78.40;;;;;;6273230;22;20062;-83
2023/01/31 03:46:36;;;;;;;25.80;16.92;;;5.50;80.20;;;;;;6273333;22;19992;-82
2023/01/31 03:49:07;;;;;;;23.55;16.52;;;5.50;78.80;;;;;;6271791;23;20000;-82
2023/01/31 03:51:36;;;;;;;24.88;17.02;;;5.40;78.40;;;;;;6273137;22;19997;-83
2023/01/31 03:54:13;;;;;;;23.70;17.05;;;5.40;78.40;;;;;;6272892;22;19996;-82
2023/01/31 03:56:51;;;;;;;22.45;16.98;;;5.30;79.30;;;;;;6271601;22;20000;-82
2023/01/31 03:59:23;;;;;;;26.52;17.42;;;5.30;78.50;;;;;;6266225;22;20022;-83
2023/01/31 04:01:53;;;;;;;25.35;18.35;;;5.20;78.70;;;;;;6246155;23;20068;-83
2023/01/31 04:04:39;;;;;;;24.83;17.58;;;5.10;79.10;;;;;;6246973;22;20426;-83
2023/01/31 04:07:05;;;;;;;23.02;16.58;;;5.00;79.60;;;;;;6246837;23;20326;-83
2023/01/31 04:09:31;;;;;;;23.45;17.45;;;5.00;79.90;;;;;;6246532;22;19996;-83
2023/01/31 04:12:01;;;;;;;24.02;17.13;;;5.00;79.60;;;;;;6246305;22;20031;-83
2023/01/31 04:14:27;;;;;;;23.58;16.45;;;5.00;79.20;;;;;;6247516;22;19997;-83
2023/01/31 04:16:53;;;;;;;23.00;17.75;;;5.00;79.50;;;;;;6221680;23;20013;-84
2023/01/31 04:19:18;;;;;;;22.23;16.42;;;5.00;79.50;;;;;;6246600;22;20058;-83
2023/01/31 04:21:44;;;;;;;23.20;16.13;;;5.00;80.00;;;;;;6246373;23;20000;-83
2023/01/31 04:24:10;;;;;;;23.63;16.95;;;5.10;80.00;;;;;;6246799;23;20114;-84
2023/01/31 04:26:36;;;;;;;23.45;16.80;;;5.10;80.00;;;;;;6220113;22;20000;-84
2023/01/31 04:29:03;;;;;;;24.77;16.85;;;5.10;79.90;;;;;;6247484;22;20028;-84
2023/01/31 04:31:29;;;;;;;25.08;16.40;;;5.10;80.00;;;;;;6248536;23;20048;-83
2023/01/31 04:33:56;;;;;;;24.67;17.15;;;5.10;80.10;;;;;;6251730;23;20430;-83
2023/01/31 04:36:23;;;;;;;24.08;16.42;;;5.20;80.00;;;;;;6249085;22;20330;-84
2023/01/31 04:38:49;;;;;;;24.67;15.88;;;5.20;80.20;;;;;;6245823;22;20008;-83
2023/01/31 04:41:14;;;;;;;22.48;16.55;;;5.30;80.40;;;;;;6246591;23;20022;-81
2023/01/31 04:43:40;;;;;;;22.38;16.48;;;5.30;80.00;;;;;;6246015;22;20466;-84
2023/01/31 04:46:06;;;;;;;23.67;16.73;;;5.30;80.20;;;;;;6246640;23;20001;-84
2023/01/31 04:48:32;;;;;;;26.33;16.08;;;5.40;80.40;;;;;;6246380;23;20008;-84
2023/01/31 04:50:58;;;;;;;29.08;18.35;;;5.50;80.60;;;;;;6245945;23;20364;-83
2023/01/31 04:53:23;;;;;;;26.02;17.77;;;5.50;80.40;;;;;;6246059;22;20004;-85
2023/01/31 04:55:52;;;;;;;23.63;15.75;;;5.60;80.80;;;;;;6245690;22;20004;-80
2023/01/31 04:58:18;;;;;;;27.73;17.33;;;5.70;80.90;;;;;;6245617;22;20000;-85
2023/01/31 05:00:43;;;;;;;22.90;16.42;;;5.60;80.50;;;;;;6245486;22;20057;-82
2023/01/31 05:03:09;;;;;;;25.38;16.50;;;5.60;80.90;;;;;;6245889;22;20016;-83
2023/01/31 05:05:35;;;;;;;25.10;16.73;;;5.50;80.90;;;;;;6245889;22;20000;-83
2023/01/31 05:08:01;;;;;;;25.17;17.23;;;5.50;81.00;;;;;;6245846;22;20549;-83
2023/01/31 05:10:26;;;;;;;28.60;17.42;;;5.50;80.80;;;;;;6247091;22;20007;-82
2023/01/31 05:12:52;;;;;;;24.88;17.08;;;5.50;80.80;;;;;;6247633;22;20057;-84
2023/01/31 05:15:19;;;;;;;25.67;17.00;;;5.50;80.90;;;;;;6248611;23;20032;-83
2023/01/31 05:17:52;;;;;;;23.10;16.58;;;5.50;80.90;;;;;;6247789;22;20275;-82
2023/01/31 05:20:17;;;;;;;25.20;16.85;;;5.40;80.60;;;;;;6247687;22;20300;-83
2023/01/31 05:22:47;;;;;;;26.42;17.30;;;5.30;80.80;;;;;;6247445;23;20015;-82
2023/01/31 05:25:13;;;;;;;24.75;17.15;;;5.30;80.70;;;;;;6249624;23;20000;-83
2023/01/31 05:27:38;;;;;;;27.67;18.10;;;5.30;81.00;;;;;;6250091;22;20087;-82
2023/01/31 05:30:05;;;;;;;26.52;18.73;;;5.30;81.20;;;;;;6247598;22;20021;-84
2023/01/31 05:32:30;;;;;;;26.10;19.30;;;5.30;81.70;;;;;;6247317;22;20016;-84
2023/01/31 05:34:56;;;;;;;31.35;20.17;;;5.20;80.80;;;;;;6247301;22;20076;-83
2023/01/31 05:37:22;;;;;;;30.02;20.45;;;5.20;81.30;;;;;;6247268;22;20004;-84
2023/01/31 05:39:47;;;;;;;30.20;20.42;;;5.20;81.30;;;;;;6252046;22;20023;-83
2023/01/31 05:42:13;;;;;;;29.75;19.30;;;5.10;81.10;;;;;;6249312;22;20426;-83
2023/01/31 05:44:39;;;;;;;29.60;18.88;;;5.10;81.00;;;;;;6258513;23;20056;-83
2023/01/31 05:47:04;;;;;;;36.75;21.52;;;5.10;81.10;;;;;;6247307;22;19996;-84
2023/01/31 05:49:32;;;;;;;29.10;21.25;;;5.10;81.20;;;;;;6247538;23;20058;-83
2023/01/31 05:51:58;;;;;;;26.45;19.27;;;5.10;81.10;;;;;;6247491;23;20000;-83
2023/01/31 05:54:24;;;;;;;31.75;19.10;;;5.10;80.90;;;;;;6247595;22;20000;-84
2023/01/31 05:56:50;;;;;;;24.27;18.10;;;5.00;81.10;;;;;;6247466;22;20054;-83
2023/01/31 05:59:16;;;;;;;27.45;18.38;;;5.00;81.00;;;;;;6250095;22;20000;-85
2023/01/31 06:01:41;;;;;;;27.63;19.27;;;5.00;81.10;;;;;;6247242;22;20003;-83
2023/01/31 06:04:08;;;;;;;28.33;20.30;;;5.00;81.00;;;;;;6247379;22;20292;-82
2023/01/31 06:06:34;;;;;;;37.75;24.38;;;5.00;81.20;;;;;;6248221;22;20035;-84
2023/01/31 06:09:00;;;;;;;30.25;19.35;;;5.00;81.10;;;;;;6246966;22;20066;-84
2023/01/31 06:11:25;;;;;;;26.38;19.08;;;5.00;81.30;;;;;;6247267;23;20001;-84
2023/01/31 06:13:51;;;;;;;30.80;18.75;;;5.10;81.30;;;;;;6247253;23;20004;-86
2023/01/31 06:16:17;;;;;;;30.60;19.77;;;5.10;81.40;;;;;;6251598;23;20334;-82
2023/01/31 06:18:42;;;;;;;30.88;19.63;;;5.10;81.10;;;;;;6254713;23;20023;-83
2023/01/31 06:21:08;;;;;;;26.50;19.05;;;5.10;81.00;;;;;;6249237;22;20007;-84
2023/01/31 06:23:33;;;;;;;29.92;19.95;;;5.10;81.30;;;;;;6247129;23;20012;-83
2023/01/31 06:25:59;;;;;;;26.67;18.75;;;5.10;81.60;;;;;;6220321;23;20067;-84
2023/01/31 06:28:25;;;;;;;24.52;16.77;;;5.10;81.60;;;;;;6248589;22;20001;-78
2023/01/31 06:30:51;;;;;;;24.45;17.42;;;5.10;81.60;;;;;;6247023;23;20010;-80
2023/01/31 06:33:16;;;;;;;25.33;17.33;;;5.10;81.40;;;;;;6248411;23;20103;-86
2023/01/31 06:35:42;;;;;;;24.33;16.98;;;5.10;81.70;;;;;;6247785;22;20126;-77
2023/01/31 06:38:11;;;;;;;23.55;16.92;;;5.20;81.30;;;;;;6246072;23;20004;-76
2023/01/31 06:40:36;;;;;;;29.27;17.48;;;5.20;81.10;;;;;;6246290;22;20004;-76
2023/01/31 06:43:02;;;;;;;32.60;17.95;;;5.20;80.90;;;;;;6246785;23;20057;-76
2023/01/31 06:45:28;;;;;;;26.85;17.52;;;5.20;81.10;;;;;;6246301;22;20079;-76
2023/01/31 06:47:54;;;;;;;28.58;18.80;;;5.20;81.20;;;;;;6247136;23;20012;-80
2023/01/31 06:50:20;;;;;;;31.27;18.38;;;5.20;81.50;;;;;;6247107;22;20000;-84
2023/01/31 06:52:45;;;;;;;28.98;17.58;;;5.30;81.60;;;;;;6248399;22;20054;-91
2023/01/31 06:55:11;;;;;;;25.27;17.13;;;5.30;81.50;;;;;;6247548;23;20095;-76
2023/01/31 06:57:46;;;;;;;26.75;17.40;;;5.40;81.20;;;;;;6247275;22;20012;-78
2023/01/31 07:00:12;;;;;;;26.27;18.02;;;5.40;80.90;;;;;;6246025;22;20003;-77
2023/01/31 07:02:38;;;;;;;33.33;17.50;;;5.50;81.30;;;;;;6246008;22;20438;-79
2023/01/31 07:05:04;;;;;;;25.73;16.38;;;5.50;80.70;;;;;;6247485;22;20002;-79
2023/01/31 07:07:30;;;;;;;30.60;17.25;;;5.60;80.50;;;;;;6249252;22;20062;-72
2023/01/31 07:09:55;;;;;;;30.13;17.23;;;5.60;80.50;;;;;;6245726;22;20000;-78
2023/01/31 07:12:21;;;;;;;24.65;16.63;;;5.80;81.00;;;;;;6245573;22;20000;-76
2023/01/31 07:14:46;;;;;;;25.20;16.60;;;5.90;81.20;;;;;;6245731;23;20000;-80
2023/01/31 07:17:12;;;;;;;24.73;15.15;;;6.10;81.30;;;;;;6245732;22;20055;-76
2023/01/31 07:19:38;;;;;;;26.15;15.32;;;6.20;80.70;;;;;;6245578;22;20000;-75
2023/01/31 07:22:03;;;;;;;27.17;15.85;;;6.30;80.00;;;;;;6245354;23;20004;-76
2023/01/31 07:24:29;;;;;;;29.33;16.20;;;6.40;79.80;;;;;;6245729;22;20085;-77
2023/01/31 07:26:55;;;;;;;26.23;15.50;;;6.50;80.00;;;;;;6245705;22;20007;-75
2023/01/31 07:29:21;;;;;;;26.13;15.32;;;6.60;79.90;;;;;;6245106;22;20091;-78
2023/01/31 07:31:46;;;;;;;22.30;14.65;;;6.70;79.70;;;;;;6218685;23;20038;-78
2023/01/31 07:34:12;;;;;;;24.30;14.90;;;6.70;79.50;;;;;;6245378;22;20430;-75
2023/01/31 07:36:37;;;;;;;28.17;15.55;;;6.80;79.30;;;;;;6245630;23;20491;-76
2023/01/31 07:39:03;;;;;;;24.70;14.13;;;7.00;79.20;;;;;;6245929;22;20012;-77
2023/01/31 07:41:29;;;;;;;26.80;14.43;;;7.10;79.20;;;;;;6245672;22;20007;-76
2023/01/31 07:43:54;;;;;;;32.95;14.80;;;7.20;78.70;;;;;;6244910;22;20008;-75
2023/01/31 07:46:20;;;;;;;30.45;15.00;;;7.30;78.80;;;;;;6244618;22;20061;-77
2023/01/31 07:48:46;;;;;;;47.35;16.13;;;7.40;78.10;;;;;;6244513;22;20023;-75
2023/01/31 07:51:12;;;;;;;32.20;14.93;;;7.50;78.20;;;;;;6245438;22;20008;-77
2023/01/31 07:53:40;;;;;;;22.65;12.05;;;7.60;78.60;;;;;;6218465;23;20008;-77
2023/01/31 07:56:17;;;;;;;22.25;12.35;;;7.70;77.80;;;;;;6245557;23;20004;-77
2023/01/31 07:58:44;;;;;;;18.20;11.52;;;7.70;77.30;;;;;;6245670;23;19996;-74
2023/01/31 08:04:08;;;;;;;20.88;11.82;;;7.70;77.20;;;;;;6245223;22;20066;-77
2023/01/31 08:06:34;;;;;;;23.13;11.27;;;7.70;76.90;;;;;;6244685;22;20028;-77
2023/01/31 08:09:00;;;;;;;22.20;11.15;;;7.80;77.00;;;;;;6245397;23;20011;-74
2023/01/31 08:11:27;;;;;;;36.30;13.52;;;7.80;76.90;;;;;;6245313;23;20000;-75
2023/01/31 08:13:53;;;;;;;20.80;12.40;;;7.80;76.70;;;;;;6244876;22;20000;-76
2023/01/31 08:16:19;;;;;;;59.85;19.65;;;7.70;76.30;;;;;;6245036;23;20050;-75
2023/01/31 08:18:46;;;;;;;32.67;12.77;;;7.80;76.80;;;;;;6244933;22;20000;-77
2023/01/31 08:21:13;;;;;;;18.67;10.88;;;7.80;76.50;;;;;;6244684;22;20077;-78
2023/01/31 08:23:39;;;;;;;20.05;10.88;;;7.80;75.90;;;;;;6244964;23;20453;-75
2023/01/31 08:26:15;;;;;;;21.52;10.85;;;7.70;76.20;;;;;;6217915;22;20009;-76
2023/01/31 08:28:41;;;;;;;36.00;12.85;;;7.70;76.70;;;;;;6244595;22;20000;-77
2023/01/31 08:31:13;;;;;;;26.58;12.77;;;7.70;75.80;;;;;;6218240;23;20339;-76
2023/01/31 08:33:39;;;;;;;27.65;12.60;;;7.80;76.00;;;;;;6244637;22;20051;-75
2023/01/31 08:36:16;;;;;;;30.33;12.20;;;7.80;76.00;;;;;;6245007;23;20004;-77
2023/01/31 08:38:41;;;;;;;26.27;11.88;;;7.80;76.90;;;;;;6245132;22;20008;-75
2023/01/31 08:41:07;;;;;;;21.80;11.85;;;7.90;75.90;;;;;;6244377;22;20069;-75
2023/01/31 08:43:33;;;;;;;19.30;11.90;;;7.90;75.50;;;;;;6247476;22;20019;-74
2023/01/31 08:45:58;;;;;;;28.75;12.23;;;8.00;75.40;;;;;;6250424;22;20307;-76
2023/01/31 08:48:24;;;;;;;23.65;12.02;;;8.00;75.00;;;;;;6248679;23;20050;-76
2023/01/31 08:50:50;;;;;;;20.70;11.65;;;8.10;74.30;;;;;;6248398;23;20079;-77
2023/01/31 08:53:15;;;;;;;26.00;12.15;;;8.10;73.90;;;;;;6249131;22;20008;-75
2023/01/31 08:55:41;;;;;;;22.15;12.18;;;8.20;73.80;;;;;;6248183;22;19997;-76
2023/01/31 08:58:07;;;;;;;20.63;12.30;;;8.20;73.70;;;;;;6220677;22;20015;-77
2023/01/31 09:00:32;;;;;;;29.13;12.68;;;8.30;73.40;;;;;;6247639;22;20046;-64
2023/01/31 09:03:00;;;;;;;22.33;12.23;;;8.30;73.40;;;;;;6247803;22;20030;-76
2023/01/31 09:05:28;;;;;;;21.35;10.85;;;8.40;72.50;;;;;;6222322;23;20007;-77
2023/01/31 09:07:54;;;;;;;24.20;12.65;;;8.40;72.10;;;;;;6250185;22;20005;-79
2023/01/31 09:10:20;;;;;;;20.75;11.57;;;8.50;72.70;;;;;;6250793;22;20061;-79
2023/01/31 09:12:47;;;;;;;28.33;12.20;;;8.50;72.00;;;;;;6251513;22;20019;-78
2023/01/31 09:15:13;;;;;;;26.55;13.02;;;8.60;72.10;;;;;;6252527;22;20050;-77
2023/01/31 09:17:40;;;;;;;23.75;12.15;;;8.60;72.20;;;;;;6254311;22;20052;-78
2023/01/31 09:20:08;;;;;;;28.45;11.95;;;8.70;71.80;;;;;;6252579;22;20352;-78
2023/01/31 09:22:34;;;;;;;22.00;11.93;;;8.80;72.20;;;;;;6249469;22;20333;-78
2023/01/31 09:25:00;;;;;;;30.00;13.65;;;8.90;72.50;;;;;;6249310;23;20008;-78
2023/01/31 09:27:27;;;;;;;32.92;12.30;;;8.90;72.00;;;;;;6250530;23;20026;-77
2023/01/31 09:29:53;;;;;;;25.85;11.88;;;9.00;71.70;;;;;;6222578;22;20459;-77
2023/01/31 09:32:20;;;;;;;39.92;11.98;;;9.10;71.50;;;;;;6249798;22;20027;-79
2023/01/31 09:34:47;;;;;;;34.95;13.35;;;9.10;71.40;;;;;;6247024;23;20438;-78
2023/01/31 09:37:14;;;;;;;47.72;13.52;;;9.20;71.00;;;;;;6247108;23;20391;-80
2023/01/31 09:39:40;;;;;;;39.55;11.50;;;9.30;70.90;;;;;;6246948;23;20010;-78
2023/01/31 09:42:28;;;;;;;64.35;13.63;;;9.40;70.70;;;;;;6246667;22;20031;-78
2023/01/31 09:45:19;;;;;;;27.77;11.05;;;9.60;72.50;;;;;;6247781;22;20435;-79
2023/01/31 09:47:52;;;;;;;49.25;11.45;;;9.60;70.20;;;;;;6204996;22;20445;-77
2023/01/31 09:50:31;;;;;;;22.52;11.30;;;9.70;70.50;;;;;;6246439;22;20000;-77
2023/01/31 09:52:57;;;;;;;20.25;9.85;;;9.80;70.70;;;;;;6248241;22;20069;-77
2023/01/31 09:55:40;;;;;;;27.10;11.02;;;9.80;70.50;;;;;;6247335;22;20054;-76
2023/01/31 09:58:34;;;;;;;23.02;11.48;;;9.90;71.60;;;;;;6222621;22;20008;-70
2023/01/31 10:01:04;;;;;;;24.10;11.80;;;10.00;70.30;;;;;;6254255;22;20075;-79
2023/01/31 10:03:42;;;;;;;17.73;10.23;;;10.10;69.20;;;;;;6251985;22;20018;-77
2023/01/31 10:06:22;;;;;;;20.38;10.40;;;10.20;70.40;;;;;;6248327;22;20457;-78
2023/01/31 10:09:09;;;;;;;29.42;11.27;;;10.30;70.10;;;;;;6246750;22;20035;-78
2023/01/31 10:11:40;;;;;;;20.13;10.27;;;10.40;69.80;;;;;;6246978;22;20493;-78
2023/01/31 10:14:27;;;;;;;24.65;11.57;;;10.50;68.40;;;;;;6246927;22;20007;-76
2023/01/31 10:17:16;;;;;;;20.65;10.95;;;10.60;68.80;;;;;;6247037;22;20018;-78
2023/01/31 10:19:51;;;;;;;19.98;9.75;;;10.70;67.50;;;;;;6246750;22;19996;-78
2023/01/31 10:22:35;;;;;;;24.35;10.52;;;10.70;67.50;;;;;;6246027;22;19996;-78
2023/01/31 10:25:21;;;;;;;22.10;11.18;;;10.80;67.40;;;;;;6246110;22;20008;-76
2023/01/31 10:27:51;;;;;;;19.75;9.52;;;10.90;67.00;;;;;;6245437;22;20011;-77
2023/01/31 10:30:22;;;;;;;25.13;14.32;;;11.00;66.40;;;;;;6245879;22;20450;-78
2023/01/31 10:32:54;;;;;;;48.83;32.63;;;11.10;66.40;;;;;;6246067;22;20011;-78
2023/01/31 10:35:34;;;;;;;16.52;10.65;;;11.20;66.10;;;;;;6246212;22;20000;-77
2023/01/31 10:38:14;;;;;;;23.33;9.88;;;11.30;65.50;;;;;;6246418;22;20000;-77
2023/01/31 10:40:45;;;;;;;15.02;8.25;;;11.30;64.80;;;;;;6245283;22;20071;-77
2023/01/31 10:43:26;;;;;;;18.02;9.43;;;11.40;64.50;;;;;;6245098;22;20454;-77
2023/01/31 10:45:52;;;;;;;17.70;11.10;;;11.50;63.60;;;;;;6244071;22;20008;-76
2023/01/31 10:48:25;;;;;;;13.27;8.35;;;11.60;63.80;;;;;;6245607;22;20032;-76
2023/01/31 10:50:57;;;;;;;15.43;8.13;;;11.60;63.20;;;;;;6245652;22;19996;-80
2023/01/31 10:53:47;;;;;;;16.17;8.68;;;11.70;62.70;;;;;;6246117;22;20000;-80
2023/01/31 10:56:34;;;;;;;16.58;9.25;;;11.80;62.10;;;;;;6245914;22;20083;-81
2023/01/31 10:59:06;;;;;;;16.77;9.10;;;11.90;62.10;;;;;;6246694;22;20283;-80
2023/01/31 11:01:34;;;;;;;21.45;12.02;;;12.00;61.30;;;;;;6247580;22;20006;-78
2023/01/31 11:04:01;;;;;;;41.80;27.75;;;12.10;61.00;;;;;;6218569;23;20319;-80
2023/01/31 11:06:27;;;;;;;22.42;14.68;;;12.20;61.20;;;;;;6245273;23;20297;-80
2023/01/31 11:09:00;;;;;;;20.15;12.10;;;12.30;61.00;;;;;;6245473;22;20024;-79
2023/01/31 11:11:28;;;;;;;30.02;17.83;;;12.40;60.40;;;;;;6219369;22;20000;-81
2023/01/31 11:14:07;;;;;;;23.27;12.35;;;12.50;60.00;;;;;;6245503;23;20504;-80
2023/01/31 11:16:38;;;;;;;26.92;12.32;;;12.60;60.90;;;;;;6246169;23;20082;-80
2023/01/31 11:19:22;;;;;;;38.83;29.45;;;12.70;60.60;;;;;;6247390;23;20000;-80
2023/01/31 11:21:52;;;;;;;;;;;12.80;60.40;;;;;;6248740;22;20000;-79
2023/01/31 11:24:24;;;;;;;20.65;11.75;;;12.80;59.10;;;;;;6246567;22;19962;-81
2023/01/31 11:27:06;;;;;;;16.30;8.85;;;12.90;58.90;;;;;;6245683;22;20000;-81
2023/01/31 11:29:33;;;;;;;13.90;7.68;;;13.00;58.60;;;;;;6263664;22;20042;-80
2023/01/31 11:32:03;;;;;;;15.95;10.27;;;13.10;58.80;;;;;;6275981;22;20008;-80
2023/01/31 11:34:30;;;;;;;18.65;11.10;;;13.10;58.40;;;;;;6277925;22;19999;-79
2023/01/31 11:37:05;;;;;;;15.73;8.88;;;13.20;58.10;;;;;;6252925;22;20090;-81
2023/01/31 11:39:34;;;;;;;18.75;10.43;;;13.20;57.60;;;;;;6252247;22;19999;-80
2023/01/31 11:42:12;;;;;;;17.75;10.30;;;13.30;57.30;;;;;;6278960;22;19999;-81
2023/01/31 11:44:57;;;;;;;19.73;11.75;;;13.30;57.60;;;;;;6251182;22;20015;-79
2023/01/31 11:47:37;;;;;;;11.73;7.50;;;13.40;56.90;;;;;;6278160;22;20004;-79
2023/01/31 11:50:03;;;;;;;13.93;7.50;;;13.50;55.20;;;;;;6249651;22;20013;-80
2023/01/31 11:52:31;;;;;;;14.57;8.30;;;13.60;55.20;;;;;;6276481;22;20003;-80
2023/01/31 11:55:08;;;;;;;19.63;9.05;;;13.60;54.90;;;;;;6276528;22;20495;-81
2023/01/31 11:57:40;;;;;;;27.52;11.65;;;13.70;54.50;;;;;;6275515;22;20004;-81
2023/01/31 12:00:23;;;;;;;15.07;7.85;;;13.80;54.90;;;;;;6248884;22;20049;-78
2023/01/31 12:03:05;;;;;;;15.57;9.17;;;13.90;53.70;;;;;;6275913;22;20341;-83
2023/01/31 12:05:39;;;;;;;8.75;5.28;;;14.00;52.30;;;;;;6248861;22;20409;-81
2023/01/31 12:08:05;;;;;;;8.23;4.80;;;14.00;49.10;;;;;;6276661;22;20035;-81
2023/01/31 12:10:44;;;;;;;11.13;4.18;;;14.00;48.20;;;;;;6276029;22;19996;-83
2023/01/31 12:13:15;;;;;;;11.25;4.75;;;14.10;48.50;;;;;;6276422;22;20089;-76
2023/01/31 12:16:03;;;;;;;10.43;4.85;;;14.20;45.00;;;;;;6249996;22;20063;-77
2023/01/31 12:19:02;;;;;;;14.63;6.63;;;14.30;47.50;;;;;;6275606;22;19999;-82
2023/01/31 12:21:52;;;;;;;19.90;9.65;;;14.40;48.50;;;;;;6240444;22;20010;-79
2023/01/31 12:24:36;;;;;;;14.27;7.82;;;14.50;48.00;;;;;;6276329;22;20015;-82
2023/01/31 12:27:19;;;;;;;16.33;7.00;;;14.50;48.20;;;;;;6249233;22;20014;-82
2023/01/31 12:30:01;;;;;;;12.45;7.60;;;14.60;46.00;;;;;;6276055;22;20275;-80
2023/01/31 12:32:48;;;;;;;12.10;5.88;;;14.70;45.90;;;;;;6275547;22;20041;-85
2023/01/31 12:35:35;;;;;;;17.52;5.90;;;14.70;46.70;;;;;;6275784;22;20015;-85
2023/01/31 12:38:19;;;;;;;9.40;5.47;;;14.80;45.40;;;;;;6275561;22;20309;-72
2023/01/31 12:40:44;;;;;;;;;;;14.80;45.70;;;;;;6275350;22;20078;-76
2023/01/31 12:43:24;;;;;;;9.57;4.85;;;14.90;41.70;;;;;;6275884;22;19953;-81
2023/01/31 12:46:11;;;;;;;11.30;4.90;;;14.90;44.10;;;;;;6275952;22;20035;-78
2023/01/31 12:48:37;;;;;;;8.98;3.92;;;14.90;43.50;;;;;;6275531;22;20085;-76
2023/01/31 12:51:11;;;;;;;6.82;3.58;;;14.90;42.70;;;;;;6275177;22;19996;-76
2023/01/31 12:54:02;;;;;;;7.63;3.80;;;14.90;41.80;;;;;;6274646;22;20004;-76
2023/01/31 12:56:36;;;;;;;6.68;3.95;;;14.90;41.50;;;;;;6274850;22;20016;-75
2023/01/31 12:59:39;;;;;;;8.95;4.10;;;15.00;41.10;;;;;;6274841;22;20392;-75